Time;durP1;ratioP1;P1;durP2;ratioP2;P2;SDS_P1;SDS_P2;PMS_P1;PMS_P2;Temp;Humidity;BMP_temperature;BMP_pressure;BME280_temperature;BME280_humidity;BME280_pressure;Samples;Min_cycle;Max_cycle;Signal;HPM_P1;HPM_P2
2022/04/25 00:00:16;;;;;;;1003.20;937.13;;;;;;;10.63;58.76;100222.63;673823;29;46350;-66
2022/04/25 00:00:38;;;;;;;1003.92;937.78;;;;;;;10.61;59.05;100227.34;675111;29;43377;-66
2022/04/25 00:00:59;;;;;;;992.88;927.20;;;;;;;10.61;58.65;100228.22;675260;29;21526;-66
2022/04/25 00:01:21;;;;;;;994.45;928.67;;;;;;;10.61;58.59;100222.81;674627;29;22250;-66
2022/04/25 00:01:42;;;;;;;1007.15;940.90;;;;;;;10.59;58.66;100210.53;676705;29;46384;-66
2022/04/25 00:02:03;;;;;;;1012.53;946.03;;;;;;;10.59;58.84;100226.72;677926;29;22401;-67
2022/04/25 00:02:24;;;;;;;1005.35;939.08;;;;;;;10.56;59.09;100222.53;676988;29;45238;-66
2022/04/25 00:02:47;;;;;;;1015.22;948.58;;;;;;;10.57;59.04;100228.78;677734;29;21534;-66
2022/04/25 00:03:08;;;;;;;1010.40;944.00;;;;;;;10.54;59.01;100226.47;676071;29;45146;-66
2022/04/25 00:03:29;;;;;;;1011.45;945.00;;;;;;;10.55;59.10;100226.28;678460;29;22587;-67
2022/04/25 00:03:50;;;;;;;1000.38;934.42;;;;;;;10.54;59.30;100231.88;678656;29;22522;-66
2022/04/25 00:04:12;;;;;;;1015.60;948.97;;;;;;;10.53;59.21;100225.63;678287;29;22407;-65
2022/04/25 00:04:33;;;;;;;1009.38;942.97;;;;;;;10.54;58.84;100226.47;677265;29;47168;-66
2022/04/25 00:04:54;;;;;;;1016.55;949.92;;;;;;;10.52;59.37;100223.94;677471;29;23464;-67
2022/04/25 00:05:16;;;;;;;1012.00;945.60;;;;;;;10.52;59.44;100225.81;677915;29;22397;-66
2022/04/25 00:05:38;;;;;;;1011.80;945.38;;;;;;;10.51;59.29;100222.25;676875;29;46261;-66
2022/04/25 00:05:59;;;;;;;1011.45;944.95;;;;;;;10.50;59.04;100228.72;677108;29;45315;-66
2022/04/25 00:06:20;;;;;;;1012.55;945.90;;;;;;;10.49;59.21;100227.03;677058;29;22438;-66
2022/04/25 00:06:42;;;;;;;1010.17;943.78;;;;;;;10.49;59.22;100229.72;678001;29;21548;-66
2022/04/25 00:07:04;;;;;;;1009.80;943.38;;;;;;;10.49;58.98;100234.31;677567;29;20585;-66
2022/04/25 00:07:25;;;;;;;1014.53;947.92;;;;;;;10.47;59.11;100229.09;676970;29;46277;-66
2022/04/25 00:07:46;;;;;;;1014.72;948.13;;;;;;;10.46;59.11;100224.69;678174;29;22161;-66
2022/04/25 00:08:07;;;;;;;998.97;933.05;;;;;;;10.46;59.41;100227.41;677869;29;22407;-66
2022/04/25 00:08:29;;;;;;;1000.47;934.40;;;;;;;10.45;59.39;100228.41;677212;29;46770;-66
2022/04/25 00:08:50;;;;;;;999.80;933.72;;;;;;;10.45;59.12;100231.97;677389;29;47280;-66
2022/04/25 00:09:12;;;;;;;999.58;933.50;;;;;;;10.41;59.14;100227.97;677772;29;21368;-66
2022/04/25 00:09:33;;;;;;;995.95;929.85;;;;;;;10.42;59.20;100231.50;677527;29;21354;-66
2022/04/25 00:09:54;;;;;;;1001.00;934.97;;;;;;;10.41;59.18;100225.25;677156;29;22544;-66
2022/04/25 00:10:16;;;;;;;1006.45;940.25;;;;;;;10.40;59.44;100236.25;678004;29;22120;-66
2022/04/25 00:10:43;;;;;;;1007.80;941.55;;;;;;;10.36;59.65;100226.84;677199;29;60302;-66
2022/04/25 00:11:04;;;;;;;1003.50;937.38;;;;;;;10.40;59.36;100230.84;677786;29;23486;-66
2022/04/25 00:11:26;;;;;;;1005.72;939.42;;;;;;;10.40;59.34;100228.16;676496;29;45351;-66
2022/04/25 00:11:47;;;;;;;1005.30;939.10;;;;;;;10.41;59.22;100233.38;678645;29;23731;-66
2022/04/25 00:12:10;;;;;;;1005.08;938.90;;;;;;;10.40;59.49;100230.84;677907;29;22399;-66
2022/04/25 00:12:31;;;;;;;1011.65;945.08;;;;;;;10.42;59.55;100234.19;677299;29;46452;-66
2022/04/25 00:12:52;;;;;;;1005.28;939.17;;;;;;;10.41;59.55;100233.38;678800;29;22458;-66
2022/04/25 00:13:14;;;;;;;1002.55;936.45;;;;;;;10.42;59.20;100235.06;678310;29;22410;-67
2022/04/25 00:13:36;;;;;;;996.67;930.75;;;;;;;10.42;58.93;100232.34;678207;29;22458;-66
2022/04/25 00:13:57;;;;;;;1011.60;945.05;;;;;;;10.41;58.97;100225.25;677041;29;46348;-66
2022/04/25 00:14:18;;;;;;;1011.75;945.13;;;;;;;10.41;58.97;100230.66;677703;29;23475;-66
2022/04/25 00:14:39;;;;;;;1010.63;944.05;;;;;;;10.37;59.20;100226.66;679123;29;22404;-66
2022/04/25 00:15:00;;;;;;;1050.88;982.33;;;;;;;10.38;59.00;100227.50;678038;29;23467;-66
2022/04/25 00:15:22;;;;;;;1010.58;944.20;;;;;;;10.37;59.07;100232.06;678029;29;22398;-66
2022/04/25 00:15:43;;;;;;;1014.08;947.65;;;;;;;10.36;59.17;100235.81;678407;29;45268;-66
2022/04/25 00:16:04;;;;;;;1007.88;941.67;;;;;;;10.36;59.16;100240.34;678366;29;21462;-66
2022/04/25 00:16:26;;;;;;;1002.05;935.97;;;;;;;10.37;59.36;100225.84;676891;29;45212;-66
2022/04/25 00:16:49;;;;;;;1012.58;946.13;;;;;;;10.38;59.45;100230.22;678297;29;44396;-66
2022/04/25 00:17:10;;;;;;;1011.20;944.80;;;;;;;10.38;59.46;100238.31;676316;29;69401;-66
2022/04/25 00:17:31;;;;;;;1000.60;934.50;;;;;;;10.40;59.34;100241.66;678394;29;22366;-66
2022/04/25 00:17:53;;;;;;;1002.17;936.13;;;;;;;10.39;59.19;100226.47;678883;29;20033;-66
2022/04/25 00:18:14;;;;;;;1005.92;939.63;;;;;;;10.40;59.51;100228.97;677157;29;46304;-66
2022/04/25 00:18:36;;;;;;;1013.40;946.88;;;;;;;10.39;59.20;100238.13;677553;29;22421;-66
2022/04/25 00:18:57;;;;;;;1008.67;942.42;;;;;;;10.41;59.49;100238.78;678227;29;23438;-66
2022/04/25 00:19:19;;;;;;;1007.42;941.10;;;;;;;10.40;59.45;100231.69;677296;29;46249;-66
2022/04/25 00:19:41;;;;;;;998.58;932.42;;;;;;;10.43;59.42;100238.56;678465;29;21499;-66
2022/04/25 00:20:03;;;;;;;995.15;929.20;;;;;;;10.43;59.27;100239.41;677053;29;45210;-66
2022/04/25 00:20:25;;;;;;;1004.53;938.35;;;;;;;10.42;59.14;100231.50;677490;29;45244;-66
2022/04/25 00:20:46;;;;;;;1012.00;945.45;;;;;;;10.43;59.35;100236.69;676074;29;70043;-66
2022/04/25 00:21:08;;;;;;;1015.75;949.13;;;;;;;10.43;59.05;100238.56;678342;29;22415;-66
2022/04/25 00:21:29;;;;;;;1011.10;944.60;;;;;;;10.39;59.28;100239.97;676419;29;44349;-66
2022/04/25 00:21:51;;;;;;;1017.03;950.35;;;;;;;10.40;59.02;100236.25;678514;29;23466;-66
2022/04/25 00:22:12;;;;;;;1007.00;940.63;;;;;;;10.38;59.04;100239.16;677617;29;44364;-66
2022/04/25 00:22:33;;;;;;;1005.38;939.03;;;;;;;10.38;59.01;100232.91;678523;29;22228;-66
2022/04/25 00:22:55;;;;;;;1014.35;947.72;;;;;;;10.37;59.00;100240.16;678464;29;21499;-66
2022/04/25 00:23:16;;;;;;;1000.00;933.92;;;;;;;10.37;59.20;100236.63;677186;29;46132;-66
2022/04/25 00:23:37;;;;;;;992.53;926.78;;;;;;;10.36;58.98;100243.91;678578;29;23476;-66
2022/04/25 00:23:58;;;;;;;1004.38;938.25;;;;;;;10.35;59.08;100238.69;677731;29;21283;-66
2022/04/25 00:24:20;;;;;;;1003.78;937.45;;;;;;;10.34;59.29;100243.22;678217;29;22441;-66
2022/04/25 00:24:44;;;;;;;1005.80;939.47;;;;;;;10.33;59.30;100241.56;678235;29;46279;-66
2022/04/25 00:25:06;;;;;;;1011.85;945.42;;;;;;;10.33;59.06;100238.03;675998;29;92145;-66
2022/04/25 00:25:28;;;;;;;1003.70;937.55;;;;;;;10.31;59.22;100240.03;677512;29;46110;-66
2022/04/25 00:25:49;;;;;;;1001.80;935.75;;;;;;;10.30;59.41;100247.31;677566;29;46354;-66
2022/04/25 00:26:10;;;;;;;1015.15;948.65;;;;;;;10.31;59.14;100240.03;678156;29;22370;-66
2022/04/25 00:26:31;;;;;;;1008.00;941.63;;;;;;;10.31;59.11;100240.03;677460;29;44138;-66
2022/04/25 00:26:53;;;;;;;1006.53;940.13;;;;;;;10.32;59.13;100245.25;678107;29;22407;-66
2022/04/25 00:27:15;;;;;;;1012.22;945.72;;;;;;;10.34;59.37;100242.41;676924;29;44391;-66
2022/04/25 00:27:36;;;;;;;1013.47;946.92;;;;;;;10.34;59.17;100240.53;676576;29;23444;-66
2022/04/25 00:27:57;;;;;;;1018.22;951.45;;;;;;;10.35;59.00;100244.09;672542;29;46441;-66
2022/04/25 00:28:19;;;;;;;1007.63;941.25;;;;;;;10.35;59.21;100246.78;674219;29;22409;-66
2022/04/25 00:28:40;;;;;;;1011.38;944.85;;;;;;;10.34;58.98;100251.31;673996;29;46285;-66
2022/04/25 00:29:02;;;;;;;1008.08;941.67;;;;;;;10.36;58.81;100249.31;673793;29;22181;-66
2022/04/25 00:29:23;;;;;;;1000.47;934.40;;;;;;;10.35;59.03;100249.50;674713;29;23574;-66
2022/04/25 00:29:44;;;;;;;1007.67;941.30;;;;;;;10.33;58.89;100246.97;675112;29;23497;-66
2022/04/25 00:30:07;;;;;;;1010.58;944.15;;;;;;;10.31;59.03;100243.56;678144;29;22393;-66
2022/04/25 00:30:28;;;;;;;1010.63;944.08;;;;;;;10.27;59.22;100247.69;675648;29;92126;-66
2022/04/25 00:30:49;;;;;;;1016.75;950.05;;;;;;;10.29;59.12;100251.03;678467;29;22206;-66
2022/04/25 00:31:11;;;;;;;998.80;932.83;;;;;;;10.25;59.09;100238.91;678466;29;22401;-66
2022/04/25 00:31:32;;;;;;;994.50;928.55;;;;;;;10.29;59.17;100246.47;677392;29;39567;-67
2022/04/25 00:31:53;;;;;;;1014.85;948.22;;;;;;;10.29;59.22;100249.16;678855;29;24858;-66
2022/04/25 00:32:15;;;;;;;1007.95;941.63;;;;;;;10.29;59.26;100242.94;677757;29;22380;-66
2022/04/25 00:32:37;;;;;;;1005.47;939.28;;;;;;;10.28;59.17;100250.19;678706;29;21428;-66
2022/04/25 00:32:58;;;;;;;1004.58;938.50;;;;;;;10.31;59.35;100248.16;678198;29;67877;-66
2022/04/25 00:33:19;;;;;;;1005.97;939.63;;;;;;;10.32;59.28;100249.84;677825;29;22177;-66
2022/04/25 00:33:41;;;;;;;1010.35;943.88;;;;;;;10.29;58.99;100245.63;678644;29;21326;-66
2022/04/25 00:34:03;;;;;;;1003.65;937.42;;;;;;;10.28;59.06;100249.34;677396;29;44361;-66
2022/04/25 00:34:24;;;;;;;996.83;930.65;;;;;;;10.28;59.04;100249.34;677549;29;44360;-66
2022/04/25 00:34:45;;;;;;;1020.33;953.53;;;;;;;10.25;58.98;100247.88;678564;29;22363;-66
2022/04/25 00:35:08;;;;;;;1013.30;946.80;;;;;;;10.24;59.23;100248.88;677653;29;22400;-65
2022/04/25 00:35:31;;;;;;;1011.35;944.88;;;;;;;10.24;58.95;100253.47;676838;29;67485;-66
2022/04/25 00:35:52;;;;;;;1005.60;939.45;;;;;;;10.23;59.29;100246.38;676871;29;69433;-66
2022/04/25 00:36:13;;;;;;;999.65;933.63;;;;;;;10.24;59.40;100250.75;677954;29;21516;-66
2022/04/25 00:36:34;;;;;;;1007.45;941.00;;;;;;;10.22;59.52;100253.66;677005;29;66184;-66
2022/04/25 00:36:56;;;;;;;1013.13;946.58;;;;;;;10.22;59.52;100250.94;678740;29;22363;-66
2022/04/25 00:37:17;;;;;;;999.72;933.78;;;;;;;10.21;59.13;100249.25;677711;29;46272;-66
2022/04/25 00:37:38;;;;;;;995.88;930.05;;;;;;;10.20;59.25;100242.22;678163;29;22508;-66
2022/04/25 00:38:00;;;;;;;1009.42;943.10;;;;;;;10.19;59.25;100254.03;678061;29;21558;-66
2022/04/25 00:38:21;;;;;;;1001.28;935.17;;;;;;;10.19;59.26;100250.50;677723;29;46129;-66
2022/04/25 00:38:42;;;;;;;1002.63;936.45;;;;;;;10.19;59.52;100253.19;678904;29;22229;-66
2022/04/25 00:39:03;;;;;;;999.78;933.75;;;;;;;10.16;59.42;100253.56;678176;29;23495;-66
2022/04/25 00:39:27;;;;;;;994.85;928.97;;;;;;;10.15;59.53;100250.00;676706;29;45047;-66
2022/04/25 00:39:49;;;;;;;995.50;929.63;;;;;;;10.14;59.24;100251.06;676670;29;69720;-66
2022/04/25 00:40:11;;;;;;;1000.05;934.10;;;;;;;10.13;59.25;100251.25;677643;29;44119;-66
2022/04/25 00:40:32;;;;;;;1005.70;939.53;;;;;;;10.12;59.74;100250.38;679491;29;22382;-66
2022/04/25 00:40:53;;;;;;;1001.25;935.13;;;;;;;10.13;59.67;100257.47;678690;29;19408;-66
2022/04/25 00:41:16;;;;;;;1003.70;937.50;;;;;;;10.13;59.55;100262.03;677489;29;22339;-66
2022/04/25 00:41:37;;;;;;;995.70;929.65;;;;;;;10.12;59.36;100249.56;678133;29;44547;-66
2022/04/25 00:41:58;;;;;;;1003.65;937.55;;;;;;;10.11;59.42;100256.81;678626;29;45230;-66
2022/04/25 00:42:19;;;;;;;1004.33;938.13;;;;;;;10.09;59.40;100251.59;677982;29;22378;-66
2022/04/25 00:42:41;;;;;;;1001.95;935.85;;;;;;;10.07;59.67;100250.94;678984;29;21525;-66
2022/04/25 00:43:02;;;;;;;1009.40;943.05;;;;;;;10.05;59.60;100247.59;677879;29;44284;-66
2022/04/25 00:43:24;;;;;;;1010.95;944.58;;;;;;;10.05;59.85;100247.59;678347;29;46283;-66
2022/04/25 00:43:45;;;;;;;1005.00;938.83;;;;;;;10.04;59.70;100254.00;678444;29;23466;-66
2022/04/25 00:44:07;;;;;;;1024.68;957.72;;;;;;;10.05;59.95;100252.16;678532;29;22263;-66
2022/04/25 00:44:28;;;;;;;999.10;933.05;;;;;;;10.04;59.89;100251.31;678161;29;46259;-66
2022/04/25 00:44:49;;;;;;;997.45;931.42;;;;;;;10.05;59.89;100253.00;678268;29;22366;-66
2022/04/25 00:45:11;;;;;;;1001.60;935.40;;;;;;;10.02;59.63;100250.66;677612;29;22407;-66
2022/04/25 00:45:40;;;;;;;1005.28;938.90;;;;;;;10.01;59.63;100248.97;677686;29;59758;-66
2022/04/25 00:46:01;;;;;;;999.67;933.55;;;;;;;10.01;59.79;100258.94;677513;29;46434;-66
2022/04/25 00:46:24;;;;;;;998.60;932.70;;;;;;;9.99;59.64;100255.59;677118;29;46401;-66
2022/04/25 00:46:47;;;;;;;990.40;924.85;;;;;;;9.98;59.78;100251.22;676815;29;67466;-66
2022/04/25 00:47:10;;;;;;;1005.83;939.60;;;;;;;9.97;59.70;100254.94;676831;29;69339;-66
2022/04/25 00:47:31;;;;;;;1011.90;945.47;;;;;;;9.94;59.97;100250.75;677747;29;44387;-66
2022/04/25 00:47:52;;;;;;;1006.65;940.25;;;;;;;9.93;59.98;100249.06;677856;29;47004;-66
2022/04/25 00:48:13;;;;;;;1009.35;942.80;;;;;;;9.93;60.01;100249.06;678048;29;23551;-66
2022/04/25 00:48:35;;;;;;;1005.75;939.38;;;;;;;9.91;59.84;100253.81;678926;29;21298;-66
2022/04/25 00:48:56;;;;;;;1002.00;935.92;;;;;;;9.89;59.84;100254.00;678342;29;44126;-66
2022/04/25 00:49:17;;;;;;;1007.20;940.85;;;;;;;9.89;60.29;100247.75;678549;29;22394;-66
2022/04/25 00:49:38;;;;;;;1018.58;951.55;;;;;;;9.87;60.02;100253.38;678108;29;23475;-66
2022/04/25 00:50:00;;;;;;;1002.28;935.95;;;;;;;9.88;60.20;100252.31;678414;29;22379;-67
2022/04/25 00:50:22;;;;;;;1004.83;938.47;;;;;;;9.89;60.20;100253.16;677723;29;45246;-66
2022/04/25 00:50:45;;;;;;;1018.15;951.33;;;;;;;9.88;60.31;100257.72;678058;29;46310;-66
2022/04/25 00:51:06;;;;;;;1008.50;942.08;;;;;;;9.86;60.29;100254.38;676916;29;67478;-66
2022/04/25 00:51:28;;;;;;;1018.55;951.65;;;;;;;9.86;60.47;100257.06;677790;29;23510;-67
2022/04/25 00:51:51;;;;;;;1008.55;942.00;;;;;;;9.87;60.01;100249.81;678283;29;46329;-66
2022/04/25 00:52:12;;;;;;;1011.40;944.75;;;;;;;9.86;60.25;100254.38;676695;29;69588;-66
2022/04/25 00:52:33;;;;;;;1014.53;947.88;;;;;;;9.85;60.16;100249.16;679184;29;21279;-66
2022/04/25 00:52:56;;;;;;;1004.53;938.25;;;;;;;9.84;60.33;100259.13;678342;29;21312;-66
2022/04/25 00:53:17;;;;;;;1000.65;934.38;;;;;;;9.84;60.34;100261.81;676669;29;69492;-66
2022/04/25 00:53:38;;;;;;;1011.63;945.03;;;;;;;9.85;60.28;100251.88;678417;29;22095;-66
2022/04/25 00:53:59;;;;;;;1019.85;953.08;;;;;;;9.86;60.35;100250.84;678079;29;22376;-66
2022/04/25 00:54:21;;;;;;;1007.85;941.45;;;;;;;9.84;60.28;100245.63;678280;29;21574;-66
2022/04/25 00:54:43;;;;;;;1015.67;948.92;;;;;;;9.84;60.41;100244.78;678198;29;44334;-66
2022/04/25 00:55:06;;;;;;;1045.03;976.78;;;;;;;9.84;60.23;100250.19;677628;29;45235;-66
2022/04/25 00:55:28;;;;;;;1004.97;938.72;;;;;;;9.84;60.38;100259.13;676473;29;90515;-66
2022/04/25 00:55:50;;;;;;;1017.67;950.92;;;;;;;9.82;60.30;100250.34;678610;29;46250;-66
2022/04/25 00:56:14;;;;;;;1010.47;943.97;;;;;;;9.84;60.34;100253.72;678049;29;23486;-66
2022/04/25 00:56:36;;;;;;;1004.70;938.42;;;;;;;9.85;60.41;100255.38;674545;29;112238;-66
2022/04/25 00:56:57;;;;;;;1007.55;941.22;;;;;;;9.84;60.40;100248.34;676980;29;69421;-66
2022/04/25 00:57:18;;;;;;;999.45;933.25;;;;;;;9.84;60.52;100255.56;678453;29;21518;-67
2022/04/25 00:57:39;;;;;;;1003.15;936.88;;;;;;;9.84;60.47;100253.72;678942;29;23443;-66
2022/04/25 00:58:01;;;;;;;1011.33;944.80;;;;;;;9.85;60.61;100262.66;678834;29;22370;-66
2022/04/25 00:58:22;;;;;;;1063.47;993.95;;;;;;;9.86;60.59;100250.84;677804;29;44385;-66
2022/04/25 00:58:44;;;;;;;1087.13;999.90;;;;;;;9.86;60.29;100261.63;678448;29;23415;-67
2022/04/25 00:59:06;;;;;;;1074.32;999.90;;;;;;;9.86;60.70;100264.34;677403;29;44121;-66
2022/04/25 00:59:29;;;;;;;1070.93;999.90;;;;;;;9.86;60.52;100253.53;677319;29;44083;-66
2022/04/25 00:59:50;;;;;;;1081.40;999.90;;;;;;;9.86;60.59;100262.47;677188;29;69333;-66
2022/04/25 01:00:13;;;;;;;1082.63;999.90;;;;;;;9.87;60.55;100250.66;677924;29;23410;-66
2022/04/25 01:00:36;;;;;;;1084.25;999.90;;;;;;;9.89;60.25;100255.84;677898;29;47551;-66
2022/04/25 01:00:59;;;;;;;1078.57;999.90;;;;;;;9.87;60.33;100252.50;676559;29;102643;-66
2022/04/25 01:01:20;;;;;;;1093.13;999.90;;;;;;;9.85;60.25;100251.88;675633;29;69451;-66
2022/04/25 01:01:42;;;;;;;1121.57;999.90;;;;;;;9.86;60.38;100267.03;678720;29;21012;-66
2022/04/25 01:02:04;;;;;;;1110.90;999.90;;;;;;;9.86;60.20;100248.97;677136;29;47369;-66
2022/04/25 01:02:26;;;;;;;1023.78;956.95;;;;;;;9.86;60.47;100253.53;677728;29;44440;-66
2022/04/25 01:02:47;;;;;;;1008.35;942.38;;;;;;;9.87;60.14;100255.19;677701;29;44864;-66
2022/04/25 01:03:09;;;;;;;997.47;931.80;;;;;;;9.88;60.60;100254.19;676920;29;45399;-66
2022/04/25 01:03:30;;;;;;;981.10;915.78;;;;;;;9.87;60.28;100250.66;677771;29;22377;-66
2022/04/25 01:03:52;;;;;;;1001.17;935.17;;;;;;;9.88;60.41;100251.50;677094;29;44441;-66
2022/04/25 01:04:14;;;;;;;1000.70;934.53;;;;;;;9.88;60.39;100251.50;676750;29;45299;-66
2022/04/25 01:04:35;;;;;;;995.75;929.75;;;;;;;9.87;60.41;100261.47;678559;29;22477;-66
2022/04/25 01:04:58;;;;;;;989.15;923.50;;;;;;;9.87;60.25;100257.91;678480;29;1574;-66
2022/04/25 01:05:20;;;;;;;995.63;929.65;;;;;;;9.87;60.20;100256.06;676780;29;46212;-66
2022/04/25 01:05:41;;;;;;;1002.22;936.03;;;;;;;9.87;60.10;100249.81;676869;29;69445;-66
2022/04/25 01:06:04;;;;;;;1011.17;944.83;;;;;;;9.89;60.22;100255.84;677957;29;21512;-66
2022/04/25 01:06:25;;;;;;;1002.40;936.30;;;;;;;9.88;60.24;100251.50;677492;28;44252;-67
2022/04/25 01:06:48;;;;;;;975.70;910.67;;;;;;;9.87;60.27;100247.09;679151;29;22405;-66
2022/04/25 01:07:09;;;;;;;985.30;919.90;;;;;;;9.89;60.01;100254.00;677007;29;69315;-66
2022/04/25 01:07:30;;;;;;;993.97;928.13;;;;;;;9.87;60.41;100253.38;678425;29;21517;-66
2022/04/25 01:07:51;;;;;;;1007.78;941.47;;;;;;;9.87;60.37;100257.91;677286;29;46211;-67
2022/04/25 01:08:13;;;;;;;999.22;933.35;;;;;;;9.86;60.46;100250.84;678392;29;23464;-66
2022/04/25 01:08:37;;;;;;;990.17;924.65;;;;;;;9.85;60.47;100251.88;678354;29;43998;-66
2022/04/25 01:08:58;;;;;;;997.00;931.20;;;;;;;9.85;60.49;100250.00;675864;29;92153;-66
2022/04/25 01:09:20;;;;;;;1002.13;936.08;;;;;;;9.86;60.35;100250.84;678687;29;22383;-65
2022/04/25 01:09:41;;;;;;;993.05;927.13;;;;;;;9.84;60.34;100251.03;677319;29;47515;-66
2022/04/25 01:10:03;;;;;;;990.67;925.03;;;;;;;9.84;60.15;100251.03;678745;29;22368;-66
2022/04/25 01:10:24;;;;;;;991.92;926.22;;;;;;;9.83;60.13;100251.22;677496;29;46349;-66
2022/04/25 01:10:45;;;;;;;984.95;919.47;;;;;;;9.82;60.15;100246.84;678684;29;21524;-66
2022/04/25 01:11:06;;;;;;;989.97;924.38;;;;;;;9.81;60.20;100255.94;677927;29;23455;-66
2022/04/25 01:11:28;;;;;;;991.70;925.97;;;;;;;9.80;60.35;100256.97;677828;29;22391;-66
2022/04/25 01:11:49;;;;;;;980.83;915.47;;;;;;;9.80;60.59;100257.81;678166;29;44373;-66
2022/04/25 01:12:11;;;;;;;988.97;923.28;;;;;;;9.80;60.46;100254.28;677010;29;46305;-66
2022/04/25 01:12:32;;;;;;;989.28;923.60;;;;;;;9.80;60.54;100257.81;678887;29;21488;-66
2022/04/25 01:12:54;;;;;;;1003.88;937.72;;;;;;;9.78;60.38;100251.78;679066;29;21517;-66
2022/04/25 01:13:15;;;;;;;1001.38;935.22;;;;;;;9.78;60.47;100253.59;677647;29;46180;-66
2022/04/25 01:13:36;;;;;;;994.90;928.97;;;;;;;9.76;60.33;100256.50;678786;29;23423;-67
2022/04/25 01:13:57;;;;;;;992.38;926.58;;;;;;;9.75;60.28;100252.13;678402;29;21483;-66
2022/04/25 01:14:20;;;;;;;1002.60;936.35;;;;;;;9.72;60.48;100256.03;677994;29;22393;-66
2022/04/25 01:14:41;;;;;;;996.80;930.90;;;;;;;9.71;60.35;100254.34;675655;29;90704;-66
2022/04/25 01:15:05;;;;;;;995.88;930.00;;;;;;;9.69;60.66;100258.25;678430;29;23698;-66
2022/04/25 01:15:28;;;;;;;997.33;931.35;;;;;;;9.67;60.72;100257.59;676620;29;67455;-66
2022/04/25 01:15:50;;;;;;;1002.28;936.15;;;;;;;9.65;60.72;100256.94;676580;29;92269;-66
2022/04/25 01:16:12;;;;;;;1008.90;942.45;;;;;;;9.66;60.62;100259.44;677377;29;44381;-67
2022/04/25 01:16:33;;;;;;;1005.03;938.70;;;;;;;9.64;60.75;100261.50;677197;29;22396;-66
2022/04/25 01:16:54;;;;;;;1011.53;945.03;;;;;;;9.63;60.90;100242.81;678100;29;22377;-66
2022/04/25 01:17:16;;;;;;;1011.85;945.30;;;;;;;9.62;60.78;100252.75;677030;29;46388;-66
2022/04/25 01:17:37;;;;;;;994.15;928.17;;;;;;;9.64;60.87;100252.56;678054;29;44393;-66
2022/04/25 01:17:58;;;;;;;992.20;926.42;;;;;;;9.63;60.87;100249.03;677938;29;21508;-66
2022/04/25 01:18:19;;;;;;;998.72;932.58;;;;;;;9.65;60.83;100252.38;678133;29;22381;-66
2022/04/25 01:18:41;;;;;;;1006.13;939.72;;;;;;;9.66;60.77;100253.22;678635;29;21528;-66
2022/04/25 01:19:02;;;;;;;1003.92;937.72;;;;;;;9.66;60.84;100254.06;677635;29;46297;-66
2022/04/25 01:19:23;;;;;;;1003.33;937.10;;;;;;;9.67;60.79;100257.59;678015;29;22386;-66
2022/04/25 01:19:45;;;;;;;1005.85;939.42;;;;;;;9.68;60.78;100253.88;677227;29;23525;-66
2022/04/25 01:20:08;;;;;;;1008.75;942.30;;;;;;;9.69;61.04;100252.88;677173;29;45330;-66
2022/04/25 01:20:29;;;;;;;1005.63;939.22;;;;;;;9.66;60.78;100256.75;676734;29;68854;-66
2022/04/25 01:20:54;;;;;;;1005.88;939.58;;;;;;;9.68;60.75;100261.97;677770;29;44203;-66
2022/04/25 01:21:18;;;;;;;1003.85;937.58;;;;;;;9.67;60.98;100255.75;673806;29;93436;-66
2022/04/25 01:21:43;;;;;;;1007.42;941.05;;;;;;;9.65;60.81;100251.53;675161;29;113273;-66
2022/04/25 01:22:09;;;;;;;998.45;932.40;;;;;;;9.67;60.87;100258.44;675580;29;93379;-66
2022/04/25 01:22:32;;;;;;;1005.45;939.13;;;;;;;9.68;60.96;100254.69;673892;29;138941;-66
2022/04/25 01:22:57;;;;;;;1010.75;944.35;;;;;;;9.70;60.89;100250.00;676954;29;69498;-66
2022/04/25 01:27:20;;;;;;;998.13;931.97;;;;;;;9.71;60.58;100251.63;673958;29;137515;-67
2022/04/25 01:27:41;;;;;;;1004.08;937.78;;;;;;;9.72;60.77;100260.59;677286;29;45247;-66
2022/04/25 01:28:02;;;;;;;1014.40;947.75;;;;;;;9.71;60.87;100259.72;678175;29;23422;-66
2022/04/25 01:28:23;;;;;;;1006.38;940.08;;;;;;;9.73;60.57;100256.84;678146;29;22402;-66
2022/04/25 01:28:44;;;;;;;1001.08;935.03;;;;;;;9.72;60.56;100257.91;678317;29;23466;-66
2022/04/25 01:29:06;;;;;;;997.53;931.60;;;;;;;9.70;60.67;100252.69;676236;29;22411;-66
2022/04/25 01:29:28;;;;;;;1006.50;940.13;;;;;;;9.72;60.25;100249.81;675658;29;47266;-66
2022/04/25 01:29:51;;;;;;;1003.83;937.60;;;;;;;9.69;60.50;100259.09;675719;29;44141;-66
2022/04/25 01:30:12;;;;;;;1017.10;950.28;;;;;;;9.67;60.61;100261.13;674462;29;69381;-66
2022/04/25 01:30:34;;;;;;;1003.53;937.28;;;;;;;9.67;60.46;100254.88;676312;29;22227;-66
2022/04/25 01:30:55;;;;;;;1001.53;935.40;;;;;;;9.64;60.70;100256.13;676126;29;46360;-66
2022/04/25 01:31:16;;;;;;;1003.72;937.55;;;;;;;9.65;60.76;100254.25;677088;29;21504;-66
2022/04/25 01:31:37;;;;;;;1004.75;938.50;;;;;;;9.62;60.85;100255.44;678249;29;22405;-66
2022/04/25 01:31:58;;;;;;;1007.17;940.75;;;;;;;9.61;60.70;100253.78;678572;29;23401;-66
2022/04/25 01:32:22;;;;;;;995.53;929.47;;;;;;;9.61;61.05;100252.91;676277;29;44370;-66
2022/04/25 01:32:43;;;;;;;981.42;915.88;;;;;;;9.61;60.81;100255.63;676667;29;69233;-66
2022/04/25 01:33:04;;;;;;;986.28;920.72;;;;;;;9.59;60.90;100254.97;678158;29;21518;-66
2022/04/25 01:33:25;;;;;;;1000.22;933.97;;;;;;;9.59;61.02;100258.50;677942;29;22635;-66
2022/04/25 01:33:46;;;;;;;991.65;925.88;;;;;;;9.60;60.85;100259.34;677642;29;46376;-66
2022/04/25 01:34:08;;;;;;;982.83;917.25;;;;;;;9.60;61.12;100262.06;677904;29;21311;-66
2022/04/25 01:34:30;;;;;;;988.05;922.30;;;;;;;9.60;60.62;100251.25;677116;29;44454;-66
2022/04/25 01:34:52;;;;;;;991.63;925.83;;;;;;;9.60;60.85;100253.97;677692;29;23454;-66
2022/04/25 01:35:14;;;;;;;994.95;929.08;;;;;;;9.60;60.85;100253.97;677479;29;69431;-66
2022/04/25 01:35:35;;;;;;;999.55;933.47;;;;;;;9.59;60.97;100254.97;677562;29;46342;-64
2022/04/25 01:35:56;;;;;;;999.13;933.08;;;;;;;9.57;60.86;100255.97;678317;29;22385;-64
2022/04/25 01:36:21;;;;;;;1003.67;937.38;;;;;;;9.58;60.76;100262.22;677236;29;23463;-64
2022/04/25 01:36:42;;;;;;;998.03;931.92;;;;;;;9.58;60.76;100256.84;674945;29;113139;-64
2022/04/25 01:37:07;;;;;;;996.13;930.15;;;;;;;9.56;60.66;100257.03;678247;29;22389;-64
2022/04/25 01:37:28;;;;;;;988.25;922.55;;;;;;;9.56;61.13;100258.84;675296;29;113451;-64
2022/04/25 01:37:49;;;;;;;982.97;917.45;;;;;;;9.54;60.73;100256.38;678313;29;22367;-64
2022/04/25 01:38:11;;;;;;;980.22;914.85;;;;;;;9.54;61.12;100259.06;678458;29;21504;-64
2022/04/25 01:38:33;;;;;;;989.17;923.47;;;;;;;9.53;61.17;100254.69;677522;29;47457;-64
2022/04/25 01:38:54;;;;;;;995.25;929.25;;;;;;;9.52;61.35;100255.69;677895;29;47441;-64
2022/04/25 01:39:15;;;;;;;996.53;930.53;;;;;;;9.51;60.90;100261.28;678453;29;20917;-65
2022/04/25 01:39:38;;;;;;;991.60;925.70;;;;;;;9.51;61.19;100263.97;677363;29;22372;-64
2022/04/25 01:40:00;;;;;;;993.28;927.22;;;;;;;9.50;60.97;100254.22;677396;29;44365;-64
2022/04/25 01:40:21;;;;;;;994.00;928.13;;;;;;;9.50;61.05;100248.84;677650;29;46292;-64
2022/04/25 01:40:42;;;;;;;988.08;922.42;;;;;;;9.49;60.88;100261.44;678268;29;21290;-64
2022/04/25 01:41:03;;;;;;;990.47;924.75;;;;;;;9.48;61.03;100256.25;678125;29;21531;-64
2022/04/25 01:41:24;;;;;;;992.90;927.08;;;;;;;9.48;61.18;100257.09;678019;29;4143;-64